Brunswick Golden Isles Airport
KBQK : now visible

Airfield :











YOU CAN JOIN US ON...

 
LOGIN :

Register | Disclaimer

   EN    FR    IT 

 









Legend :    VFR   Marginal VFR   IFR   Intensive IFR   Very Intensive IFR
Visi :
Ceiling :
>= 8 km
>= 3000ft
5 to 8 km
1000 to 3000 ft
1500m to 5 km
500 to 1000 ft
800 to 1500m
200 to 500 ft
< 800m
< 200 ft
Symbols :   Thunderstorms  Fog  Heavy snow  Heavy precipitations  Wind > 20 kt






- Airport Elevation : 26 ft
- IATA code : BQK


KBQK - Brunswick Golden Isles

CURRENT METAR :
  • 282315Z AUTO 11003KT 10SM CLR 10/05 A3000 RMK AO2 T01000048

EXPIRED METARs :
  • 282235Z AUTO 10006KT 10SM CLR 12/05 A2998 RMK AO2 T01240047
  • 282215Z AUTO 10006KT 10SM CLR 13/05 A2998 RMK AO2 T01330049
  • 282155Z AUTO 10007KT 10SM CLR 14/05 A2998 RMK AO2 T01410046
  • 282135Z AUTO 12006KT 10SM CLR 15/05 A2997 RMK AO2 T01460048
  • 282115Z AUTO 11008KT 10SM CLR 15/05 A2997 RMK AO2 T01480050
  • 282055Z AUTO 10007KT 10SM CLR 15/05 A2996 RMK AO2 T01520051
  • 282035Z AUTO 10006KT 10SM CLR 15/04 A2997 RMK AO2 T01550043

TAF N/A



MET'MAP, your aeronautical weather chart ! - Copyright ORBIFLY December 2007 - Disclaimer

ORBIFLY MET'MAP TEAM :

Programming & Development : Alexandra Zaïnal
Concept & original design : Baudouin d'Aumeries
Assistance for programming : Marc-Olivier Méhu
Technical & hardware support : Manuel Goepfert

Contact : metmap@orbifly.com




SOURCES & CREDITS :

   NOAA       Earth
Advisory